Tiempo atmosférico en la estación meteorológica de Écija, Sevilla (130 m.)



Fecha
DESCASC
Temp. máxima en grados centígrados (hora)
DESCASC
Temp. mínima en grados centígrados (hora)
DESCASC
Temp. media en grados centígrados
DESCASC
Racha de viento máxima en m/sg (hora)
DESCASC
Velocidad máxima media en intervalos de 10 minutos(hora)
DESCASC
Precipitaciones diarias en mm
DESCASC
Precipitaciones de 00:00 a 06:00 en mm
DESCASC
Precipitaciones de 06:00 a 12:00 en mm
DESCASC
Precipitaciones de 12:00 a 18:00 en mm
DESCASC
Precipitaciones de 18:00 a 24:00 en mm
DESCASC
23-06-2019 34.2 (17:00) 16.5 (06:50) 25.4 9.72 (14:40) 6.11 (22:20) 0 0 0 0 0
22-06-2019 34.8 (16:40) 14.2 (07:10) 24.5 10.56 (20:50) 6.94 (23:10) 0 0 0 0 0
21-06-2019 32.2 (19:20) 14.9 (07:10) 23.6 10 (14:10) 6.39 (23:10) 0 0 0 0 0
20-06-2019 28.7 (17:00) 15.8 (00:00) 22.3 11.67 (15:20) 6.67 (23:00) 0 0 0 0 0
19-06-2019 30.9 (18:30) 15.8 (00:00) 23.3 13.06 (22:30) 8.61 (23:00) 0 0 0 0 0
18-06-2019 29.4 (17:30) 14.5 (00:00) 21.9 11.39 (18:10) 7.22 (20:10) 0 0 0 0 0
17-06-2019 33.1 (18:00) 13 (00:00) 23 10 (20:20) 5.56 (19:50) 0 0 0 0 0
16-06-2019 31.7 (18:40) 12.5 (00:00) 22.1 9.17 (20:50) 5.56 (20:30) 0 0 0 0 0
15-06-2019 30.3 (20:30) 10.2 (00:00) 20.2 7.5 (23:50) 5 (23:59) 0 0 0 0 0
14-06-2019 25.5 (17:40) 15.9 (00:00) 20.7 13.33 (10:40) 8.61 (11:00) 0 0 0 0 0
13-06-2019 29.7 (16:50) 15.1 (00:00) 22.4 12.22 (15:50) 7.78 (23:59) 0 0 0 0 0
12-06-2019 30.6 (17:40) 11.8 (00:00) 21.2 10.28 (14:10) 6.94 (23:40) 0 0 0 0 0
11-06-2019 30 (17:30) 11.5 (00:00) 20.8 11.11 (23:10) 6.67 (23:10) 0 0 0 0 0
10-06-2019 30.1 (18:20) 12.8 (00:00) 21.5 12.5 (19:50) 7.78 (19:50) 0 0 0 0 0
09-06-2019 -- (--) -- (--) -- 13.33 (21:30) 8.61 (21:20) 0 0 0 0 0
08-06-2019 -- (--) -- (--) -- 10 (19:40) 6.94 (19:20) 0 0 0 0 0
07-06-2019 27.6 (19:20) 15.3 (00:00) 21.5 10.28 (00:30) 6.39 (00:10) 0 0 0 0 0
06-06-2019 28.1 (16:30) 12.4 (00:00) 20.3 13.61 (18:50) 8.33 (23:30) 0 0 0 0 0
05-06-2019 26.1 (16:50) 14.1 (00:00) 20.1 10 (13:00) 6.11 (05:00) 0 0 0 0 0
04-06-2019 32.1 (18:00) 13.8 (00:00) 22.9 13.33 (21:20) 9.72 (22:00) 0 0 0 0 0
03-06-2019 36.4 (16:40) 14.4 (00:00) 25.4 8.89 (23:10) 5.56 (23:30) 0 0 0 0 0
02-06-2019 35.7 (17:20) 14.2 (00:00) 25 9.44 (05:10) 5.83 (01:50) 0 0 0 0 0
01-06-2019 33.5 (16:40) 13.6 (00:00) 23.6 10.28 (20:10) 7.22 (20:30) 0 0 0 0 0
31-05-2019 33.7 (17:10) 13.2 (00:00) 23.5 15.56 (18:40) 6.94 (20:10) 0 0 0 0 0
30-05-2019 31.3 (16:20) 14.4 (00:00) 22.8 11.39 (20:00) 6.94 (18:30) 0 0 0 0 0
29-05-2019 33.5 (16:40) 17 (00:00) 25.3 8.89 (15:30) 5 (19:20) 0 0 0 0 0
28-05-2019 36.1 (19:20) 15.4 (00:00) 25.7 11.11 (21:40) 6.39 (21:10) 0 0 0 0 0
27-05-2019 35.2 (18:20) 12.4 (00:00) 23.8 11.11 (20:20) 6.39 (01:10) 0 0 0 0 0
26-05-2019 32.8 (19:10) 12 (00:00) 22.4 8.89 (23:59) 6.11 (23:59) 0 0 0 0 0

Gráficas

Temp. máximas Temp. mínimas Temp. medias Precipitaciones Rachas de viento máximas Velocidades máximas media en intervalos de 10 minutos

Datos horarios

Fecha y hora oficial Temperatura (ºC) Velocidad del viento (km/h) Dirección del viento Racha (km/h) Dirección de racha Precipitación (mm) Presión (hPa) Tendencia (hPa) Humedad (%)
2019-06-24 23:00:00 24.4 15 Sudoeste 22 Sudoeste 0 999.4 1.3 53
2019-06-24 22:00:00 25.8 17 Sudoeste 32 Sudoeste 0 998.8 1 48
2019-06-24 21:00:00 28.6 19 Sudoeste 33 Sudoeste 0 998.4 0.7 40
2019-06-24 20:00:00 30 20 Oeste 32 Oeste 0 998.1 0.2 38
2019-06-24 19:00:00 30.9 18 Oeste 32 Oeste 0 997.8 -0.2 37
2019-06-24 18:00:00 31.8 13 Oeste 33 Oeste 0 997.7 -0.6 38
2019-06-24 17:00:00 31.5 14 Oeste 37 Oeste 0 997.9 -0.8 39
2019-06-24 16:00:00 32.4 15 Sudoeste 35 Sudoeste 0 998 -1.2 37
2019-06-24 15:00:00 30.8 8 Sur 22 Oeste 0 998.3 -1.5 39
2019-06-24 14:00:00 29.2 9 Sudoeste 19 Sudoeste 0 998.7 -1.2 42
2019-06-24 13:00:00 28 4 Oeste 22 Oeste 0 999.2 -0.7 48
2019-06-24 12:00:00 25.4 6 Oeste 19 Noroeste 0 999.8 0.4 52
2019-06-24 11:00:00 23.3 5 Sudoeste 13 Sudoeste 0 999.9 0.7 56
2019-06-24 10:00:00 20.3 6 Noroeste 12 Noroeste 0 999.9 1.2 60
2019-06-24 09:00:00 19.8 5 Noroeste 9 Noroeste 0 999.4 1 57
2019-06-24 08:00:00 18.3 0 Calma 8 Noroeste 0 999.2 0.8 56
2019-06-24 07:00:00 18 3 Noroeste 11 Noroeste 0 998.7 0.1 57
2019-06-24 06:00:00 18.3 4 Sur 15 Sudoeste 0 998.4 -0.4 55
2019-06-24 05:00:00 19.7 13 Sudoeste 18 Sudoeste 0 998.4 -0.3 51
2019-06-24 04:00:00 19.6 0 Calma 6 Sudoeste 0 998.6 -0.2 50
2019-06-24 03:00:00 20.8 4 Sudoeste 24 Sudoeste 0 998.8 0.3 50
2019-06-24 02:00:00 21.7 21 Sudoeste 33 Sudoeste 0 998.7 0.9 50
2019-06-24 01:00:00 22.9 18 Sudoeste 27 Sudoeste 0 998.8 2.4 52
2019-06-24 00:00:00 24.4 17 Sudoeste 26 Oeste 0 998.5 2.6 50
2019-06-23 23:00:00 25.5 14 Oeste 33 Sudoeste 0 997.8 2.4 50
2019-06-23 22:00:00 27.1 17 Oeste 33 Oeste 0 996.4 1.3 46
2019-06-23 21:00:00 29.7 15 Oeste 28 Oeste 0 995.9 0.4 40
2019-06-23 20:00:00 31.7 17 Oeste 31 Oeste 0 995.4 -0.4 35
2019-06-23 19:00:00 32.7 15 Oeste 33 Oeste 0 995.1 -1.3 35
2019-06-23 18:00:00 33.4 13 Oeste 28 Noroeste 0 995.5 -1.5 33
2019-06-23 17:00:00 34 12 Oeste 30 Oeste 0 995.8 -1.8 32
2019-06-23 16:00:00 33.2 9 Oeste 24 Sudoeste 0 996.4 -1.9 33
2019-06-23 15:00:00 32.6 8 Sudoeste 35 Sudoeste 0 997 -1.5 35
2019-06-23 14:00:00 31.6 4 Sudoeste 20 Sudoeste 0 997.6 -1.1 38
2019-06-23 13:00:00 29.7 3 Oeste 14 Oeste 0 998.3 -0.7 42
2019-06-23 12:00:00 28.2 2 Sur 12 Sudoeste 0 998.5 -0.6 45
2019-06-23 11:00:00 25.9 5 Noroeste 13 Noroeste 0 998.7 -0.6 46
2019-06-23 10:00:00 24.2 3 Este 8 Este 0 999 0.3 46
2019-06-23 09:00:00 20.7 3 Sudeste 6 Sudeste 0 999.1 0.3 52
2019-06-23 08:00:00 17.7 0 Calma 4 Sudeste 0 999.3 0.7 53
2019-06-23 07:00:00 16.5 0 Calma 4 Sudoeste 0 998.7 0.1 52
2019-06-23 06:00:00 17.2 0 Calma 4 Nordeste 0 998.8 0 49
2019-06-23 05:00:00 18.4 0 Calma 9 Sudoeste 0 998.6 -0.5 48
2019-06-23 04:00:00 20 4 Sudoeste 9 Sur 0 998.6 -0.5 43
2019-06-23 03:00:00 21.3 6 Oeste 29 Sudoeste 0 998.8 0 44
2019-06-23 02:00:00 21.4 17 Sudoeste 26 Sudoeste 0 999.1 1.1 49
2019-06-23 01:00:00 22.3 17 Sudoeste 27 Sudoeste 0 999.1 2.1 45
2019-06-23 00:00:00 23.3 23 Sudoeste 33 Sudoeste 0 998.8 2.4 44
2019-06-22 23:00:00 25.1 22 Sudoeste 36 Sudoeste 0 998 2.2 43
2019-06-22 22:00:00 27.3 24 Sudoeste 35 Sudoeste 0 997 1 40
2019-06-22 21:00:00 30.8 22 Oeste 38 Sudoeste 0 996.4 0.1 33
2019-06-22 20:00:00 34.3 11 Oeste 24 Noroeste 0 995.8 -1.1 27
2019-06-22 19:00:00 34.8 3 Oeste 18 Oeste 0 996 -1.3 26
2019-06-22 18:00:00 34.3 9 Oeste 23 Oeste 0 996.3 -1.8 26
2019-06-22 17:00:00 34.6 6 Sudoeste 19 Sudoeste 0 996.9 -1.8 27
2019-06-22 16:00:00 33.8 8 Noroeste 21 Sudoeste 0 997.3 -2 28
2019-06-22 15:00:00 33.2 12 Oeste 24 Sudoeste 0 998.1 -1.7 29
2019-06-22 14:00:00 32.4 4 Oeste 21 Sur 0 998.7 -1.4 33
2019-06-22 13:00:00 31.2 8 Sudeste 18 Sudeste 0 999.3 -1.3 35
2019-06-22 12:00:00 28.9 3 Sudeste 15 Sudeste 0 999.8 -0.8 41
2019-06-22 11:00:00 26 7 Este 17 Nordeste 0 1000.1 -0.2 45
2019-06-22 10:00:00 22.1 7 Este 14 Este 0 1000.6 0.8 53
2019-06-22 09:00:00 19.6 4 Este 7 Sudeste 0 1000.6 1.1 58
2019-06-22 08:00:00 16.2 2 Sur 6 Sur 0 1000.3 0.8 65
2019-06-22 07:00:00 14.5 0 Calma 6 Sudeste 0 999.8 0.2 63
2019-06-22 06:00:00 15.8 0 Calma 11 Sur 0 999.5 -0.2 61
2019-06-22 05:00:00 17 2 Oeste 4 Oeste 0 999.5 -0.1 60
2019-06-22 04:00:00 17.6 0 Calma 6 Sudeste 0 999.6 -0.1 58
2019-06-22 03:00:00 19 0 Calma 6 Sur 0 999.7 0.3 53
2019-06-22 02:00:00 20.9 5 Sudoeste 16 Oeste 0 999.6 0.7 48
2019-06-22 01:00:00 21.8 14 Sudoeste 34 Oeste 0 999.7 1.4 48
2019-06-22 00:00:00 23 15 Oeste 31 Oeste 0 999.4 1.4 44
2019-06-21 23:00:00 24.5 23 Sudoeste 33 Sudoeste 0 998.9 1.1 41
2019-06-21 22:00:00 26.5 15 Oeste 31 Sudoeste 0 998.3 0.5 38
2019-06-21 21:00:00 30.6 10 Sudoeste 17 Sudoeste 0 998 -0.1 24
2019-06-21 20:00:00 31.5 11 Sudoeste 22 Sudoeste 0 997.8 -0.6 24
2019-06-21 19:00:00 31.6 8 Oeste 24 Oeste 0 997.8 -1 24
2019-06-21 18:00:00 31.8 5 Oeste 27 Oeste 0 998.1 -1.3 27
2019-06-21 17:00:00 31.3 14 Noroeste 28 Noroeste 0 998.4 -1.6 29
2019-06-21 16:00:00 30.4 8 Oeste 25 Oeste 0 998.8 -2 31
2019-06-21 15:00:00 29.3 7 Sudoeste 36 Oeste 0 999.4 -1.7 35
2019-06-21 14:00:00 28.4 9 Oeste 23 Oeste 0 1000 -1.4 38
2019-06-21 13:00:00 26.9 7 Sudoeste 26 Sudoeste 0 1000.8 -0.7 43
2019-06-21 12:00:00 25 6 Oeste 23 Oeste 0 1001.1 -0.2 47
2019-06-21 11:00:00 23.2 5 Norte 12 Noroeste 0 1001.4 0.1 52
2019-06-21 10:00:00 22.1 0 Calma 9 Noroeste 0 1001.5 0.7 56
2019-06-21 09:00:00 19.1 3 Este 7 Este 0 1001.3 0.8 65
2019-06-21 08:00:00 16.1 3 Este 9 Nordeste 0 1001.3 0.9 70
2019-06-21 07:00:00 15.7 3 Oeste 10 Oeste 0 1000.8 0.6 69
2019-06-21 06:00:00 16.6 0 Calma 12 Oeste 0 1000.5 0.4 66
2019-06-21 05:00:00 17.4 6 Oeste 17 Oeste 0 1000.4 0.4 65
2019-06-21 04:00:00 17.4 0 Calma 8 Sudeste 0 1000.2 0.1 63
2019-06-21 03:00:00 18.5 6 Sudoeste 21 Sudoeste 0 1000.1 0.4 61
2019-06-21 02:00:00 18.9 9 Sudoeste 18 Sudoeste 0 1000 0.8 58
2019-06-21 01:00:00 19.5 9 Sudoeste 24 Sudoeste 0 1000.1 1.6 55
2019-06-21 00:00:00 20.3 21 Sudoeste 32 Sudoeste 0 999.7 1.4 53
2019-06-20 23:00:00 21.1 24 Sudoeste 36 Sudoeste 0 999.2 1.2 51
2019-06-20 22:00:00 22.6 20 Oeste 37 Oeste 0 998.5 0.5 48
2019-06-20 21:00:00 25.4 18 Oeste 37 Sudoeste 0 998.3 -0.2 44
2019-06-20 20:00:00 27.7 18 Oeste 32 Oeste 0 998 -0.8 40
2019-06-20 19:00:00 28.3 14 Oeste 32 Oeste 0 998 -0.9 38
2019-06-20 18:00:00 28.3 17 Sudoeste 37 Oeste 0 998.5 -0.8 38
2019-06-20 17:00:00 28.7 19 Sudoeste 36 Sudoeste 0 998.8 -1 37
2019-06-20 16:00:00 28 17 Sudoeste 42 Sudoeste 0 998.9 -1.2 38
2019-06-20 15:00:00 27.8 17 Oeste 33 Sudoeste 0 999.3 -1.1 41
2019-06-20 14:00:00 27.5 14 Sudoeste 33 Oeste 0 999.8 -0.7 44
2019-06-20 13:00:00 25.9 11 Oeste 29 Sudoeste 0 1000.1 -0.5 50
2019-06-20 12:00:00 24.5 8 Noroeste 19 Oeste 0 1000.4 -0.3 56
2019-06-20 11:00:00 23.1 4 Oeste 19 Oeste 0 1000.5 0 63
2019-06-20 10:00:00 21.1 3 Noroeste 10 Sudoeste 0 1000.6 0 70
2019-06-20 09:00:00 19.3 6 Sudoeste 21 Sudoeste 0 1000.7 0.3 76
2019-06-20 08:00:00 17.7 6 Sudoeste 10 Sudoeste 0 1000.5 0.2 81
2019-06-20 07:00:00 16.3 0 Calma -- -- 0 1000.6 0.2 80
2019-06-20 06:00:00 15.9 0 Calma 2 Sudeste 0 1000.4 -0.3 79
2019-06-20 05:00:00 16.8 0 Calma 11 Sudoeste 0 1000.3 -0.5 78
2019-06-20 04:00:00 17.6 4 Sudoeste 13 Sudoeste 0 1000.4 -0.6 78
2019-06-20 03:00:00 18.2 7 Sudoeste 19 Sudoeste 0 1000.7 0 76
2019-06-20 02:00:00 18.7 14 Sudoeste 28 Sudoeste 0 1000.8 0.8 75
2019-06-20 01:00:00 19.2 19 Sudoeste 33 Sudoeste 0 1001 1.9 72
2019-06-20 00:00:00 19.9 25 Sudoeste 41 Sudoeste 0 1000.7 2 67
2019-06-19 23:00:00 21 31 Sudoeste 47 Oeste 0 1000 1.5 62
2019-06-19 22:00:00 23.4 22 Oeste 41 Oeste 0 999.1 0.6 51
2019-06-19 21:00:00 27.3 23 Sudoeste 36 Sudoeste 0 998.7 -0.2 41
2019-06-19 20:00:00 30.2 11 Oeste 31 Oeste 0 998.5 -1.1 33
2019-06-19 19:00:00 30.4 17 Oeste 28 Oeste 0 998.5 -1.8 33
2019-06-19 18:00:00 30.1 11 Oeste 28 Oeste 0 998.9 -2.1 35
2019-06-19 17:00:00 30.1 10 Noroeste 27 Noroeste 0 999.6 -2.3 35
2019-06-19 16:00:00 29 9 Noroeste 25 Sudoeste 0 1000.3 -2.2 38
2019-06-19 15:00:00 27.6 3 Sudoeste 32 Norte 0 1001 -1.8 42
2019-06-19 14:00:00 25.8 5 Oeste 21 Sudoeste 0 1001.9 -0.9 45
2019-06-19 13:00:00 24.7 3 Noroeste 17 Sudoeste 0 1002.5 -0.6 50
2019-06-19 12:00:00 23.2 6 Sudoeste 17 Oeste 0 1002.8 -0.1 57
2019-06-19 11:00:00 20.9 3 Sudoeste 13 Sudoeste 0 1002.8 0 65
2019-06-19 10:00:00 19.3 5 Sudoeste 14 Oeste 0 1003.1 1 74
2019-06-19 09:00:00 17.8 0 Calma 5 Sudoeste 0 1002.9 0.9 87
2019-06-19 08:00:00 16.6 3 Oeste 6 Oeste 0 1002.8 1 86
2019-06-19 07:00:00 16.4 2 Oeste 9 Sudoeste 0 1002.1 0.4 86
2019-06-19 06:00:00 16.9 7 Sudoeste 17 Sudoeste 0 1002 0.2 86
2019-06-19 05:00:00 17.5 10 Sudoeste 19 Sudoeste 0 1001.8 -0.1 86
2019-06-19 04:00:00 17.6 14 Sudoeste 27 Sudoeste 0 1001.7 -0.4 87
2019-06-19 03:00:00 17.6 16 Sudoeste 25 Sudoeste 0 1001.8 -0.5 85
2019-06-19 02:00:00 18.2 15 Sudoeste 27 Sudoeste 0 1001.9 0.2 78
2019-06-19 01:00:00 19.1 13 Oeste 29 Oeste 0 1002.1 1.4 73
2019-06-19 00:00:00 20.1 16 Sudoeste 27 Sudoeste 0 1002.3 1.8 67
2019-06-18 23:00:00 21.4 15 Sudoeste 31 Oeste 0 1001.7 1.5 61
2019-06-18 22:00:00 22.9 15 Oeste 32 Oeste 0 1000.7 0.9 55
2019-06-18 21:00:00 25.7 21 Oeste 38 Oeste 0 1000.5 0.4 46
2019-06-18 20:00:00 27.1 22 Oeste 38 Oeste 0 1000.2 0.1 43
2019-06-18 19:00:00 28.1 20 Oeste 41 Sudoeste 0 999.8 -0.7 39
2019-06-18 18:00:00 28.8 18 Oeste 36 Sudoeste 0 1000.1 -1 36
2019-06-18 17:00:00 29 18 Oeste 37 Oeste 0 1000.1 -1.5 33
2019-06-18 16:00:00 28.3 18 Oeste 36 Oeste 0 1000.5 -1.6 35
2019-06-18 15:00:00 27.6 16 Oeste 32 Oeste 0 1001.1 -1.2 36
2019-06-18 14:00:00 26.1 15 Sudoeste 30 Sudoeste 0 1001.6 -0.8 44
2019-06-18 13:00:00 24.4 13 Sudoeste 27 Sudoeste 0 1002.1 -0.4 53
2019-06-18 12:00:00 22.4 13 Oeste 26 Oeste 0 1002.3 0.1 59
2019-06-18 11:00:00 20.4 14 Oeste 28 Oeste 0 1002.4 0.7 67
2019-06-18 10:00:00 18.8 13 Oeste 22 Oeste 0 1002.5 1.3 72
2019-06-18 09:00:00 17.9 9 Oeste 19 Sudoeste 0 1002.2 1.2 78
2019-06-18 08:00:00 15.7 3 Sur 7 Sudoeste 0 1001.7 1.1 82
2019-06-18 07:00:00 15 3 Sudoeste 10 Oeste 0 1001.2 0.7 82
2019-06-18 06:00:00 15.7 5 Noroeste 24 Sudoeste 0 1001 0.3 74
2019-06-18 05:00:00 16.2 18 Sudoeste 27 Sudoeste 0 1000.6 -0.2 70
2019-06-18 04:00:00 17.4 14 Sudoeste 18 Sudoeste 0 1000.5 -0.3 52
2019-06-18 03:00:00 18.3 10 Sudoeste 19 Sudoeste 0 1000.7 0.1 51
2019-06-18 02:00:00 19.6 9 Sudoeste 16 Sudoeste 0 1000.8 0.9 51
2019-06-18 01:00:00 20.5 8 Sudoeste 18 Sudoeste 0 1000.8 1.6 52
2019-06-18 00:00:00 21.8 11 Sudoeste 30 Sudoeste 0 1000.6 1.7 51
2019-06-17 23:00:00 23.4 15 Sudoeste 26 Sudoeste 0 999.9 1.4 46
2019-06-17 22:00:00 25.4 12 Oeste 29 Sudoeste 0 999.2 1.2 42
2019-06-17 21:00:00 28.3 19 Oeste 36 Sudoeste 0 998.9 0.4 38
2019-06-17 20:00:00 31 19 Oeste 33 Oeste 0 998.5 -0.3 31
2019-06-17 19:00:00 32.5 14 Oeste 28 Oeste 0 998 -1.7 28
2019-06-17 18:00:00 33.1 10 Oeste 23 Sudoeste 0 998.5 -2 28
2019-06-17 17:00:00 32.6 9 Sudoeste 35 Norte 0 998.8 -2.8 28
2019-06-17 16:00:00 31.6 8 Sudoeste 23 Sudoeste 0 999.7 -2.5 29
2019-06-17 15:00:00 30.8 10 Sudoeste 22 Sudoeste 0 1000.5 -2.2 30
2019-06-17 14:00:00 29.1 4 Oeste 27 Sudoeste 0 1001.6 -1.4 33
2019-06-17 13:00:00 27.5 5 Sudeste 15 Sudoeste 0 1002.2 -1.1 38
2019-06-17 12:00:00 25.4 3 Este 12 Este 0 1002.7 -0.8 42
2019-06-17 11:00:00 23.6 0 Calma 9 Este 0 1003 -0.7 48
2019-06-17 10:00:00 20.7 0 Calma 7 Sudeste 0 1003.3 0 57
2019-06-17 09:00:00 17 5 Sudeste 8 Sudeste 0 1003.5 0.5 65
2019-06-17 08:00:00 14.4 4 Sudeste 8 Este 0 1003.7 0.6 73
2019-06-17 07:00:00 13.2 0 Calma 4 Sudeste 0 1003.3 0.1 73
2019-06-17 06:00:00 13.7 0 Calma 4 Sur 0 1003 -0.5 71
2019-06-17 05:00:00 14.5 0 Calma 7 Este 0 1003.1 -0.7 67
2019-06-17 04:00:00 15.8 5 Este 17 Sudoeste 0 1003.2 -0.7 61
2019-06-17 03:00:00 18 14 Sudoeste 20 Sudoeste 0 1003.5 0 57
2019-06-17 02:00:00 18.5 14 Sudoeste 19 Sudoeste 0 1003.8 0.9 56
2019-06-17 01:00:00 19.9 11 Sudoeste 22 Sudoeste 0 1003.9 1.9 46
2019-06-17 00:00:00 21.2 17 Sudoeste 24 Sudoeste 0 1003.5 2.2 41
2019-06-16 23:00:00 22.6 18 Sudoeste 29 Sudoeste 0 1002.9 2.1 40
2019-06-16 22:00:00 24.7 17 Oeste 31 Sudoeste 0 1002 1.4 38
2019-06-16 21:00:00 27.9 19 Oeste 33 Oeste 0 1001.3 0.5 36
2019-06-16 20:00:00 30.3 16 Oeste 33 Oeste 0 1000.8 -0.2 33
2019-06-16 19:00:00 31.6 11 Sudoeste 29 Oeste 0 1000.6 -0.8 31
2019-06-16 18:00:00 31.6 7 Sudoeste 22 Sudoeste 0 1000.8 -1.2 30
2019-06-16 17:00:00 31.3 9 Sudoeste 25 Sudoeste 0 1001 -1.4 30
2019-06-16 16:00:00 30.5 8 Oeste 26 Oeste 0 1001.4 -1 30
2019-06-16 15:00:00 29.3 11 Oeste 21 Oeste 0 1002 -0.4 33
2019-06-16 14:00:00 27.6 4 Oeste 16 Oeste 0 1002.4 -0.3 37
2019-06-16 13:00:00 26.3 0 Calma 7 Noroeste 0 1002.4 -0.4 39
2019-06-16 12:00:00 24.6 0 Calma 9 Nordeste 0 1002.4 0.2 42
2019-06-16 11:00:00 22.6 0 Calma 8 Sudeste 0 1002.7 0.5 49
2019-06-16 10:00:00 19.3 2 Sudeste 7 Este 0 1002.8 1.1 56
2019-06-16 09:00:00 15.6 3 Este 8 Sudeste 0 1002.2 1.1 64
2019-06-16 08:00:00 13 0 Calma 4 Este 0 1002.2 1 68
2019-06-16 07:00:00 12.7 0 Calma 6 Sudeste 0 1001.7 0.3 67
2019-06-16 06:00:00 13.3 0 Calma 6 Sur 0 1001.1 -0.7 65
2019-06-16 05:00:00 14.4 0 Calma 4 Sudoeste 0 1001.2 -1 61
2019-06-16 04:00:00 15 0 Calma 3 Sudoeste 0 1001.4 -1.3 61
2019-06-16 03:00:00 16.5 0 Calma 8 Sudoeste 0 1001.8 -0.8 56
2019-06-16 02:00:00 16.8 8 Sudoeste 10 Sudoeste 0 1002.2 0.1 55
2019-06-16 01:00:00 19.1 3 Sur 32 Sudoeste 0 1002.7 1.3 50
2019-06-16 00:00:00 21.4 18 Sudoeste 27 Sudoeste 0 1002.6 1.4 45
2019-06-15 23:00:00 23.3 14 Oeste 26 Sudoeste 0 1002.1 0.9 35
2019-06-15 22:00:00 24.4 12 Sudoeste 14 Sudoeste 0 1001.4 0.2 30
2019-06-15 21:00:00 28.6 6 Oeste 13 Oeste 0 1001.2 -0.5 28
2019-06-15 20:00:00 29.8 5 Sudoeste 17 Noroeste 0 1001.2 -1 28
2019-06-15 19:00:00 29.8 4 Noroeste 17 Sudoeste 0 1001.2 -1.8 27
2019-06-15 18:00:00 29.2 6 Noroeste 20 Oeste 0 1001.7 -1.9 28
2019-06-15 17:00:00 27.9 3 Este 18 Noroeste 0 1002.2 -2.1 30
2019-06-15 16:00:00 27.5 5 Nordeste 18 Norte 0 1003 -1.7 33
2019-06-15 15:00:00 26 7 Este 19 Nordeste 0 1003.6 -1.4 36
2019-06-15 14:00:00 25.1 6 Nordeste 17 Noroeste 0 1004.3 -1 38
2019-06-15 13:00:00 24 5 Noroeste 19 Norte 0 1004.7 -0.9 41
2019-06-15 12:00:00 22.7 9 Nordeste 20 Nordeste 0 1005 -0.6 45
2019-06-15 11:00:00 20.8 5 Este 10 Este 0 1005.3 0.1 55
2019-06-15 10:00:00 18.4 0 Calma 7 Norte 0 1005.6 0.5 61
2019-06-15 09:00:00 14.9 4 Sudeste 7 Sudeste 0 1005.6 1.1 69
2019-06-15 08:00:00 12.3 0 Calma 0 Calma 0 1005.2 0.7 76
2019-06-15 07:00:00 10.4 0 Calma 3 Sudoeste 0 1005.1 0.6 77
2019-06-15 06:00:00 11.3 3 Sudeste 6 Sudeste 0 1004.5 0 76
2019-06-15 05:00:00 11.9 0 Calma 4 Sur 0 1004.5 0.1 73
2019-06-15 04:00:00 12.7 0 Calma 13 Sudoeste 0 1004.5 -0.4 69
2019-06-15 03:00:00 14.4 5 Sudoeste 15 Sudoeste 0 1004.5 0 67
2019-06-15 02:00:00 15.2 12 Sudoeste 17 Sudoeste 0 1004.4 0.7 63
2019-06-15 01:00:00 15.6 8 Sudoeste 22 Sudoeste 0 1004.9 2.1 59
2019-06-15 00:00:00 16.8 15 Sudoeste 31 Oeste 0 1004.5 2.3 55
2019-06-14 23:00:00 17.8 23 Sudoeste 40 Sudoeste 0 1003.7 2.4 51
2019-06-14 22:00:00 19.2 24 Sudoeste 41 Sudoeste 0 1002.8 1.7 46
2019-06-14 21:00:00 20.9 24 Sudoeste 44 Sudoeste 0 1002.2 1.2 44
2019-06-14 20:00:00 22.9 26 Sudoeste 44 Sudoeste 0 1001.3 0.3 40
2019-06-14 19:00:00 24.2 23 Sudoeste 40 Sudoeste 0 1001.1 -0.1 38
2019-06-14 18:00:00 24.9 21 Oeste 38 Oeste 0 1001 -0.5 36
2019-06-14 17:00:00 24.6 19 Sudoeste 44 Sudoeste 0 1001 -0.9 36
2019-06-14 16:00:00 24 19 Oeste 44 Oeste 0 1001.2 -0.5 37
2019-06-14 15:00:00 23.9 21 Oeste 48 Sudoeste 0 1001.5 0.1 38
2019-06-14 14:00:00 23.3 26 Sudoeste 40 Sudoeste 0 1001.9 1 40
2019-06-14 13:00:00 22.8 24 Oeste 46 Sudoeste 0 1001.7 1.5 42
2019-06-14 12:00:00 21.6 27 Sudoeste 43 Sudoeste 0 1001.4 1.6 46
2019-06-14 11:00:00 20.7 31 Sudoeste 48 Sudoeste 0 1000.9 1.6 53
2019-06-14 10:00:00 19.5 27 Sudoeste 40 Sudoeste 0 1000.2 1.5 57
2019-06-14 09:00:00 18.4 26 Sudoeste 40 Sudoeste 0 999.8 1.7 61
2019-06-14 08:00:00 16.5 27 Sudoeste 41 Sudoeste 0 999.3 1.7 70
2019-06-14 07:00:00 15.9 22 Sudoeste 30 Sudoeste 0 998.7 1.1 63
2019-06-14 06:00:00 17.1 18 Oeste 30 Sudoeste 0 998.1 0.3 52
2019-06-14 05:00:00 18 16 Sudoeste 27 Sudoeste 0 997.6 0 52
2019-06-14 04:00:00 18.6 18 Sudoeste 28 Sudoeste 0 997.6 -0.1 50
2019-06-14 03:00:00 19.4 20 Sudoeste 33 Sudoeste 0 997.8 1 46
2019-06-14 02:00:00 19.8 25 Sudoeste 40 Sudoeste 0 997.6 1.8 45
2019-06-14 01:00:00 20.2 22 Sudoeste 42 Sudoeste 0 997.7 3.2 43
2019-06-14 00:00:00 21.4 28 Sudoeste 37 Sudoeste 0 996.8 2.8 44
2019-06-13 23:00:00 22.7 22 Sudoeste 36 Sudoeste 0 995.8 2.3 44
2019-06-13 22:00:00 24.5 18 Oeste 35 Sudoeste 0 994.5 1.3 40
2019-06-13 21:00:00 26.4 17 Oeste 30 Oeste 0 994 0.8 36
2019-06-13 20:00:00 27.5 21 Oeste 36 Oeste 0 993.5 -0.1 36
2019-06-13 19:00:00 28.8 12 Oeste 35 Sudoeste 0 993.2 -0.6 37
2019-06-13 18:00:00 29.4 7 Sudoeste 27 Oeste 0 993.2 -1.1 37
2019-06-13 17:00:00 29.2 9 Oeste 27 Oeste 0 993.6 -1.1 37
2019-06-13 16:00:00 28.6 10 Sudoeste 44 Oeste 0 993.8 -1.4 38
2019-06-13 15:00:00 28.3 13 Sudoeste 26 Sudoeste 0 994.3 -1.4 40
2019-06-13 14:00:00 27 8 Sudoeste 29 Sudeste 0 994.7 -1.3 42
2019-06-13 13:00:00 26.5 11 Sudeste 27 Noroeste 0 995.2 -0.9 42
2019-06-13 12:00:00 24.7 4 Oeste 13 Oeste 0 995.7 -0.4 51
2019-06-13 11:00:00 22.8 6 Sudeste 14 Sudeste 0 996 0.2 56
2019-06-13 10:00:00 21.4 4 Este 10 Este 0 996.1 0.4 63
2019-06-13 09:00:00 18.8 5 Sudeste 8 Sudeste 0 996.1 0.6 71
2019-06-13 08:00:00 16.1 4 Sur 6 Sudeste 0 995.8 0.2 84
2019-06-13 07:00:00 15.4 2 Oeste 5 Noroeste 0 995.7 -0.2 87
2019-06-13 06:00:00 15.3 2 Nordeste 10 Sudoeste 0 995.5 -0.5 84
2019-06-13 05:00:00 16.1 8 Sudoeste 12 Sudoeste 0 995.6 -0.5 81
2019-06-13 04:00:00 16.2 8 Sudoeste 11 Sudoeste 0 995.9 0.2 76
2019-06-13 03:00:00 17.1 6 Sudoeste 11 Sur 0 996 0.5 74
2019-06-13 02:00:00 18.3 9 Sur 21 Sudoeste 0 996.1 1.1 70
2019-06-13 01:00:00 19.5 16 Sudoeste 31 Sudoeste 0 995.7 1.6 66
2019-06-13 00:00:00 20.8 23 Sudoeste 36 Sudoeste 0 995.5 1.9 61
2019-06-12 23:00:00 22.3 23 Sudoeste 32 Sudoeste 0 995 1.6 56
2019-06-12 22:00:00 24 12 Sur 23 Sur 0 994.1 0.8 41
2019-06-12 21:00:00 27 12 Sur 27 Sur 0 993.6 -0.3 36
2019-06-12 20:00:00 28.9 18 Sur 26 Sudoeste 0 993.4 -1 33
2019-06-12 19:00:00 29.6 8 Sudeste 26 Sudoeste 0 993.3 -1.7 32
2019-06-12 18:00:00 29.4 5 Sur 22 Sur 0 993.9 -1.8 32
2019-06-12 17:00:00 30.2 10 Sudoeste 25 Sur 0 994.4 -1.9 33
2019-06-12 16:00:00 28.8 12 Sudeste 26 Sudeste 0 995 -2.1 33
2019-06-12 15:00:00 28.5 16 Sudeste 37 Sudeste 0 995.7 -1.6 36
2019-06-12 14:00:00 27.7 12 Sudeste 22 Sudeste 0 996.3 -1.2 38
2019-06-12 13:00:00 26.9 12 Sudeste 26 Sudeste 0 997.1 -0.4 41
2019-06-12 12:00:00 25.4 11 Sur 31 Sudeste 0 997.3 -0.4 45
2019-06-12 11:00:00 24.4 18 Sudeste 31 Sudeste 0 997.5 0.2 52
2019-06-12 10:00:00 21.2 9 Sudeste 14 Sur 0 997.5 0.5 64
2019-06-12 09:00:00 17.3 6 Sudeste 11 Sudeste 0 997.7 1 71
2019-06-12 08:00:00 13.5 4 Sur 9 Sudeste 0 997.3 0.9 79
2019-06-12 07:00:00 12.3 0 Calma 6 Sudoeste 0 997 0.7 79
2019-06-12 06:00:00 12.7 0 Calma 12 Sudoeste 0 996.7 0.6 77
2019-06-12 05:00:00 13.6 0 Calma 5 Sudoeste 0 996.4 -0.2 74
2019-06-12 04:00:00 14.8 2 Oeste 10 Oeste 0 996.3 0.1 71
2019-06-12 03:00:00 15.8 0 Calma 8 Sudoeste 0 996.1 0.2 65
2019-06-12 02:00:00 17.9 0 Calma 22 Sudoeste 0 996.6 1.1 62
2019-06-12 01:00:00 18.9 21 Sudoeste 31 Sudoeste 0 996.2 0.9 61
2019-06-12 00:00:00 19.6 22 Sudoeste 40 Oeste 0 995.9 1.1 59
2019-06-11 23:00:00 20.7 23 Oeste 40 Oeste 0 995.5 1.3 57
2019-06-11 22:00:00 22.9 19 Oeste 36 Sudoeste 0 995.3 1.2 47
2019-06-11 21:00:00 26.2 21 Oeste 36 Oeste 0 994.8 0.6 37
2019-06-11 20:00:00 29.2 16 Noroeste 32 Noroeste 0 994.2 -0.2 27
2019-06-11 19:00:00 29.7 20 Noroeste 38 Noroeste 0 994.1 -1.1 28
2019-06-11 18:00:00 29.5 14 Noroeste 34 Noroeste 0 994.2 -1.4 29
2019-06-11 17:00:00 29.7 17 Noroeste 32 Noroeste 0 994.4 -1.8 31
2019-06-11 16:00:00 28.8 17 Oeste 35 Noroeste 0 995.2 -1.7 34
2019-06-11 15:00:00 27.5 10 Noroeste 28 Oeste 0 995.6 -1.9 36
2019-06-11 14:00:00 26.1 9 Noroeste 26 Oeste 0 996.2 -1.2 38
2019-06-11 13:00:00 24.8 9 Oeste 30 Oeste 0 996.9 -0.7 38
2019-06-11 12:00:00 23 7 Noroeste 22 Noroeste 0 997.5 -0.4 41
2019-06-11 11:00:00 21.2 8 Noroeste 18 Norte 0 997.4 -0.5 45
2019-06-11 10:00:00 20.2 0 Calma 8 Este 0 997.6 -0.1 56
2019-06-11 09:00:00 17.5 3 Este 6 Este 0 997.9 -0.1 70
2019-06-11 08:00:00 14 0 Calma 2 Noroeste 0 997.9 -0.6 82
2019-06-11 07:00:00 11.9 0 Calma 6 Sudeste 0 997.7 -1.1 83
2019-06-11 06:00:00 12.4 0 Calma 5 Sudeste 0 998 -1.2 81
2019-06-11 05:00:00 13 0 Calma 7 Sudeste 0 998.5 -1.4 80
2019-06-11 04:00:00 13.4 4 Sudeste 8 Sudeste 0 998.8 -1.5 75
2019-06-11 03:00:00 15.3 5 Oeste 13 Oeste 0 999.2 -1.1 73
2019-06-11 02:00:00 15.8 6 Oeste 13 Sudoeste 0 999.9 -0.1 69
2019-06-11 01:00:00 17.3 3 Sudoeste 30 Sudoeste 0 1000.3 0.9 66
2019-06-11 00:00:00 17.8 9 Sudoeste 33 Oeste 0 1000.3 1.7 66
2019-06-10 23:00:00 18.8 20 Sudoeste 44 Sudoeste 0 1000 1.6 60
2019-06-10 22:00:00 20.6 23 Sudoeste 45 Oeste 0 999.4 1 52
2019-06-10 21:00:00 23.7 23 Oeste 45 Oeste 0 998.6 0 41
2019-06-10 20:00:00 26.3 26 Oeste 45 Sudoeste 0 998.4 -0.8 35
2019-06-10 19:00:00 29.3 20 Oeste 37 Oeste 0 998.4 -1.5 31
2019-06-10 18:00:00 29.6 12 Oeste 31 Oeste 0 998.6 -2.1 30
2019-06-10 17:00:00 29.2 8 Oeste 29 Oeste 0 999.2 -2.4 30
2019-06-10 16:00:00 28.5 9 Oeste 27 Noroeste 0 999.9 -2.1 31
2019-06-10 15:00:00 27.5 6 Oeste 27 Noroeste 0 1000.7 -1.8 33
2019-06-10 14:00:00 26 7 Noroeste 29 Oeste 0 1001.6 -1.3 35
2019-06-10 13:00:00 24.9 8 Noroeste 28 Noroeste 0 1002 -0.9 40
2019-06-10 12:00:00 23.8 7 Noroeste 19 Oeste 0 1002.5 -0.9 45
2019-06-10 11:00:00 22.3 11 Noroeste 21 Oeste 0 1002.9 0.1 49
2019-06-10 10:00:00 21 3 Oeste 14 Noroeste 0 1002.9 0.5 54
2019-06-10 09:00:00 18.7 10 Noroeste 17 Noroeste 0 1003.4 0.8 59
2019-06-10 08:00:00 14.5 0 Calma 6 Noroeste 0 1002.8 0 68
2019-06-10 07:00:00 12.8 0 Calma 6 Oeste 0 1002.4 -0.5 68
2019-06-10 06:00:00 13.8 0 Calma 8 Este 0 1002.6 -0.5 67
2019-06-10 05:00:00 15.7 0 Calma 17 Oeste 0 1002.8 0 62
2019-06-10 04:00:00 16.6 15 Oeste 23 Oeste 0 1002.9 0 61
2019-06-10 03:00:00 17.8 12 Oeste 20 Oeste 0 1003.1 0.4 58
2019-06-10 02:00:00 18 13 Oeste 27 Oeste 0 1002.8 0.7 57
2019-06-10 01:00:00 18.6 20 Oeste 37 Sudoeste 0 1002.9 1.4 52
2019-06-10 00:00:00 19.3 27 Sudoeste 41 Sudoeste 0 1002.7 1.8 46
2019-06-09 23:00:00 20.1 28 Sudoeste 46 Oeste 0 1002.1 1.4 43
2019-06-09 22:00:00 21.1 27 Sudoeste 48 Sudoeste 0 1001.5 1.2 41
2019-06-09 21:00:00 24.4 28 Sudoeste 47 Sudoeste 0 1000.9 0.3 35
2019-06-09 20:00:00 27 28 Sudoeste 44 Oeste 0 1000.7 -0.4 30
2019-06-09 19:00:00 29 23 Sudoeste 39 Sudoeste 0 1000.3 -1.4 29
2019-06-09 18:00:00 29.1 17 Oeste 37 Oeste 0 1000.6 -1.7 32
2019-06-09 17:00:00 28.6 14 Oeste 35 Oeste 0 1001.1 -1.7 33
2019-06-09 16:00:00 28.2 12 Oeste 31 Noroeste 0 1001.7 -1.3 34
2019-06-09 15:00:00 27.6 14 Oeste 37 Oeste 0 1002.3 -1.1 37
2019-06-09 14:00:00 26.7 12 Oeste 32 Sudoeste 0 1002.8 -0.7 44
2019-06-09 13:00:00 25.6 11 Oeste 37 Oeste 0 1003 -0.6 50
2019-06-09 12:00:00 24.2 10 Oeste 24 Oeste 0 1003.4 -0.2 57
2019-06-09 11:00:00 22.1 5 Oeste 18 Oeste 0 1003.5 -- 63
2019-06-09 10:00:00 22.3 4 Sur 12 Sudoeste 0 1003.6 -- 66
2019-06-09 09:00:00 20.1 4 Oeste 8 Sudoeste 0 1003.6 -- 74
2019-06-09 08:00:00 -- 4 Noroeste 8 Noroeste 0 -- -- --
2019-06-09 07:00:00 -- 0 Calma 7 Oeste 0 -- -- --
2019-06-09 06:00:00 -- 0 Calma 8 Noroeste 0 -- -- --
2019-06-09 05:00:00 -- 9 Sudoeste 17 Sudoeste 0 -- -- --
2019-06-09 04:00:00 -- 14 Sudoeste 26 Sudoeste 0 -- -- --
2019-06-09 03:00:00 -- 15 Sudoeste 25 Sudoeste 0 -- -- --
2019-06-09 02:00:00 -- 11 Sudoeste 26 Sudoeste 0 -- -- --
2019-06-09 01:00:00 -- 18 Sudoeste 30 Sudoeste 0 -- -- --
2019-06-09 00:00:00 -- 18 Sudoeste 28 Sudoeste 0 -- -- --
2019-06-08 23:00:00 -- 16 Sudoeste 28 Sudoeste 0 -- -- --
2019-06-08 22:00:00 -- 17 Sudoeste 30 Sudoeste 0 -- -- --
2019-06-08 21:00:00 -- 15 Sudoeste 35 Sudoeste 0 -- -- --
2019-06-08 20:00:00 -- 17 Sur 36 Sur 0 -- -- --
2019-06-08 19:00:00 -- 22 Sur 34 Sur 0 -- -- --
2019-06-08 18:00:00 -- 18 Sur 31 Sudoeste 0 -- -- --
2019-06-08 17:00:00 -- 11 Sudoeste 27 Oeste 0 -- -- --
2019-06-08 16:00:00 -- 12 Sudoeste 26 Sudeste 0 -- -- --
2019-06-08 15:00:00 -- 20 Sudeste 30 Sudeste 0 -- -- --
2019-06-08 14:00:00 -- 9 Noroeste 23 Oeste 0 -- -- --
2019-06-08 13:00:00 28.8 4 Norte 15 Sudeste 0 1001.8 -1.5 33
2019-06-08 12:00:00 26.2 3 Este 13 Este 0 1002.4 -0.8 35
2019-06-08 11:00:00 23.4 3 Nordeste 10 Este 0 1002.6 -0.3 38
2019-06-08 10:00:00 19.8 3 Nordeste 7 Este 0 1003.3 0.8 41
2019-06-08 09:00:00 16.2 0 Calma 5 Sudeste 0 1003.2 0.7 48
2019-06-08 08:00:00 11.5 3 Sudeste 5 Sur 0 1002.9 0.4 55
2019-06-08 07:00:00 9.4 0 Calma 4 Sudeste 0 1002.5 0 56
2019-06-08 06:00:00 10.2 3 Sudeste 4 Sur 0 1002.5 -0.3 53
2019-06-08 05:00:00 11.3 0 Calma 0 Calma 0 1002.5 -0.5 46
2019-06-08 04:00:00 12.7 0 Calma 3 Sudoeste 0 1002.5 -0.2 41
2019-06-08 03:00:00 14 0 Calma 5 Sudoeste 0 1002.8 0.2 38
2019-06-08 02:00:00 15.4 0 Calma 6 Noroeste 0 1003 0.8 36
2019-06-08 01:00:00 16.8 3 Noroeste 13 Noroeste 0 1002.7 1.2 33
2019-06-08 00:00:00 18.2 10 Noroeste 14 Noroeste 0 1002.6 1.5 32
2019-06-07 23:00:00 20 7 Norte 13 Nordeste 0 1002.2 1.1 32
2019-06-07 22:00:00 22.3 8 Oeste 13 Oeste 0 1001.5 0.4 30
2019-06-07 21:00:00 26.9 2 Norte 11 Noroeste 0 1001.1 -0.1 27
2019-06-07 20:00:00 27.6 4 Norte 14 Sudeste 0 1001.1 -0.5 27
2019-06-07 19:00:00 27.1 5 Sudeste 18 Nordeste 0 1001.1 -0.7 27
2019-06-07 18:00:00 27.2 7 Norte 21 Nordeste 0 1001.2 -1 28
2019-06-07 17:00:00 26.4 7 Norte 24 Oeste 0 1001.6 -0.9 28
2019-06-07 16:00:00 25.7 6 Oeste 18 Norte 0 1001.8 -0.9 31
2019-06-07 15:00:00 24.7 8 Noroeste 24 Noroeste 0 1002.2 -0.4 34
2019-06-07 14:00:00 23.6 6 Norte 22 Norte 0 1002.5 -0.3 38
2019-06-07 13:00:00 22.3 9 Noroeste 19 Noroeste 0 1002.7 0.1 44
2019-06-07 12:00:00 20.9 6 Nordeste 19 Nordeste 0 1002.6 0.5 46
2019-06-07 11:00:00 18.6 8 Norte 18 Norte 0 1002.8 1.5 54
2019-06-07 10:00:00 17.3 9 Norte 20 Norte 0 1002.6 2.3 61
2019-06-07 09:00:00 16.3 7 Norte 23 Norte 0 1002.1 2.2 70
2019-06-07 08:00:00 15.9 13 Norte 22 Norte 0 1001.3 1.6 75
2019-06-07 07:00:00 16.7 13 Oeste 27 Sudoeste 0 1000.3 0.8 77
2019-06-07 06:00:00 16.7 17 Sudoeste 28 Sudoeste 0 999.9 0.5 76
2019-06-07 05:00:00 16.7 19 Sudoeste 28 Sudoeste 0 999.7 0.3 76
2019-06-07 04:00:00 15.7 19 Sudoeste 26 Sudoeste 0 999.5 0.3 76
2019-06-07 03:00:00 15.3 10 Sudoeste 20 Sudoeste 0 999.4 0.7 74
2019-06-07 02:00:00 15.8 13 Sudoeste 26 Sudoeste 0 999.4 1.2 71
2019-06-07 01:00:00 16.4 16 Sudoeste 37 Sudoeste 0 999.2 1.8 68
2019-06-07 00:00:00 17.1 24 Sudoeste 42 Sudoeste 0 998.7 1.8 63
2019-06-06 23:00:00 18 28 Sudoeste 40 Sudoeste 0 998.2 2.1 54
2019-06-06 22:00:00 19.2 22 Sudoeste 40 Sudoeste 0 997.4 1.7 44
2019-06-06 21:00:00 21.5 26 Sudoeste 43 Oeste 0 996.9 1.1 35
2019-06-06 20:00:00 24.4 25 Oeste 46 Sudoeste 0 996.1 -0.2 29
2019-06-06 19:00:00 26 24 Oeste 49 Oeste 0 995.7 -1.1 30
2019-06-06 18:00:00 26.8 26 Oeste 41 Oeste 0 995.8 -1.8 31
2019-06-06 17:00:00 27.6 19 Oeste 38 Sudoeste 0 996.3 -1.9 30
2019-06-06 16:00:00 27.3 15 Oeste 34 Sudoeste 0 996.8 -1.9 31
2019-06-06 15:00:00 26.9 10 Oeste 27 Sudoeste 0 997.6 -1.4 32
2019-06-06 14:00:00 25.7 7 Sur 21 Sudoeste 0 998.2 -1.5 36
2019-06-06 13:00:00 24.1 5 Este 16 Sudeste 0 998.7 -1.3 40
2019-06-06 12:00:00 22.6 5 Sudeste 14 Sudeste 0 999 -1.1 42
2019-06-06 11:00:00 21 5 Este 13 Este 0 999.7 -0.9 45
2019-06-06 10:00:00 19 4 Nordeste 12 Norte 0 1000 -0.3 49
2019-06-06 09:00:00 16.8 0 Calma 6 Nordeste 0 1000.1 -0.1 55
2019-06-06 08:00:00 12.8 3 Sudeste 9 Norte 0 1000.6 0.6 61
2019-06-06 07:00:00 12.7 6 Noroeste 14 Noroeste 0 1000.3 0.3 57
2019-06-06 06:00:00 13.5 4 Norte 11 Norte 0 1000.2 0.2 57
2019-06-06 05:00:00 14.2 7 Noroeste 22 Oeste 0 1000 -0.3 61
2019-06-06 04:00:00 14.7 17 Oeste 23 Oeste 0 1000 -0.3 62
2019-06-06 03:00:00 16.2 14 Oeste 26 Sudoeste 0 1000 -0.2 59
2019-06-06 02:00:00 16.8 18 Sudoeste 31 Sudoeste 0 1000.3 0.5 58
2019-06-06 01:00:00 16.7 21 Sudoeste 26 Sudoeste 0 1000.3 1.3 59
2019-06-06 00:00:00 18.2 20 Sudoeste 29 Sudoeste 0 1000.2 1.7 55
2019-06-05 23:00:00 19.2 15 Sudoeste 23 Sudoeste 0 999.8 1.3 41
2019-06-05 22:00:00 20 12 Noroeste 15 Norte 0 999 0.5 36
2019-06-05 21:00:00 24.1 10 Noroeste 23 Oeste 0 998.5 -0.3 32
2019-06-05 20:00:00 25.4 13 Oeste 29 Oeste 0 998.5 -0.6 31
2019-06-05 19:00:00 25.9 18 Noroeste 31 Norte 0 998.5 -1 32
2019-06-05 18:00:00 24.8 18 Noroeste 28 Noroeste 0 998.8 -1.2 33
2019-06-05 17:00:00 25.5 15 Noroeste 28 Noroeste 0 999.1 -1.6 33
2019-06-05 16:00:00 25.2 15 Noroeste 29 Noroeste 0 999.5 -2 35
2019-06-05 15:00:00 24.4 8 Norte 27 Norte 0 1000 -1.7 38
2019-06-05 14:00:00 23.2 6 Oeste 25 Oeste 0 1000.7 -0.9 42
2019-06-05 13:00:00 22.5 8 Noroeste 36 Noroeste 0 1001.5 -0.1 45
2019-06-05 12:00:00 20 5 Noroeste 33 Noroeste 0 1001.7 0.4 49
2019-06-05 11:00:00 19.3 9 Noroeste 22 Noroeste 0 1001.6 0.7 51
2019-06-05 10:00:00 18.2 9 Noroeste 24 Oeste 0 1001.6 1.5 53
2019-06-05 09:00:00 16.9 14 Noroeste 22 Noroeste 0 1001.3 2.1 55
2019-06-05 08:00:00 15 14 Noroeste 22 Oeste 0 1000.9 2.3 58
2019-06-05 07:00:00 14.4 13 Noroeste 24 Noroeste 0 1000.1 1.9 57
2019-06-05 06:00:00 15.7 16 Noroeste 28 Noroeste 0 999.2 1.3 54
2019-06-05 05:00:00 17.1 22 Noroeste 32 Noroeste 0 998.6 0.8 53
2019-06-05 04:00:00 19.1 16 Noroeste 28 Noroeste 0 998.2 0.7 57
2019-06-05 03:00:00 19.6 17 Oeste 29 Oeste 0 997.9 1.1 58
2019-06-05 02:00:00 19.6 10 Oeste 19 Oeste 0 997.8 1.7 64
2019-06-05 01:00:00 20.1 9 Oeste 31 Sudoeste 0 997.5 2.2 65
2019-06-05 00:00:00 20.7 27 Sudoeste 41 Sudoeste 0 996.8 1.9 63
2019-06-04 23:00:00 21 27 Sudoeste 47 Oeste 0 996.1 1.2 61
2019-06-04 22:00:00 22.3 35 Sudoeste 48 Sudoeste 0 995.3 0.4 57
2019-06-04 21:00:00 24.6 28 Sudoeste 44 Sudoeste 0 994.9 0 49
2019-06-04 20:00:00 27.1 28 Sudoeste 45 Sudoeste 0 994.9 -0.7 46
2019-06-04 19:00:00 30.2 23 Oeste 42 Oeste 0 994.9 -1.3 38
2019-06-04 18:00:00 31.6 23 Oeste 41 Sudoeste 0 994.9 -2 36
2019-06-04 17:00:00 31.2 23 Oeste 45 Oeste 0 995.6 -2.3 37
2019-06-04 16:00:00 31.1 19 Oeste 36 Oeste 0 996.2 -2.3 36
2019-06-04 15:00:00 30.5 17 Oeste 35 Sudoeste 0 996.9 -2.1 36
2019-06-04 14:00:00 29.3 15 Sudoeste 30 Oeste 0 997.9 -1.1 41
2019-06-04 13:00:00 28.2 17 Sudoeste 32 Sudoeste 0 998.5 -0.7 44
2019-06-04 12:00:00 26.3 14 Oeste 25 Sudoeste 0 999 0 46
2019-06-04 11:00:00 24.7 12 Sudoeste 23 Sudoeste 0 999 0.1 48
2019-06-04 10:00:00 22.7 10 Sudoeste 18 Sudoeste 0 999.2 0.5 51
2019-06-04 09:00:00 18.8 5 Sudeste 8 Sudeste 0 999 0.5 56
2019-06-04 08:00:00 15.8 0 Calma 5 Sudeste 0 998.9 0.2 58
2019-06-04 07:00:00 14 0 Calma 4 Nordeste 0 998.7 -0.3 58
2019-06-04 06:00:00 15.4 0 Calma 4 Sur 0 998.5 -1 54
2019-06-04 05:00:00 16 0 Calma 8 Oeste 0 998.7 -1.1 52
2019-06-04 04:00:00 17 3 Noroeste 11 Noroeste 0 999 -0.8 49
2019-06-04 03:00:00 17.1 4 Noroeste 12 Sur 0 999.5 -0.2 49
2019-06-04 02:00:00 19.3 4 Nordeste 16 Sur 0 999.8 0.6 43
2019-06-04 01:00:00 21.3 7 Sudoeste 24 Oeste 0 999.8 1.3 40
2019-06-04 00:00:00 23 15 Sudoeste 32 Oeste 0 999.7 1.7 38
2019-06-03 23:00:00 25.5 16 Oeste 31 Sudoeste 0 999.2 1.5 35
2019-06-03 22:00:00 28.1 16 Oeste 30 Oeste 0 998.5 0.6 32
2019-06-03 21:00:00 32.2 10 Oeste 27 Oeste 0 998 -0.2 24
2019-06-03 20:00:00 34.4 15 Oeste 27 Oeste 0 997.7 -0.9 23
2019-06-03 19:00:00 35.6 12 Oeste 27 Sudoeste 0 997.9 -1 22
2019-06-03 18:00:00 36 9 Oeste 27 Sudoeste 0 998.2 -1.7 22
2019-06-03 17:00:00 35.9 12 Sudoeste 27 Sudoeste 0 998.6 -2.2 22
2019-06-03 16:00:00 36 7 Sudoeste 18 Sudoeste 0 998.9 -2.6 23
2019-06-03 15:00:00 34.7 6 Sur 17 Sudoeste 0 999.9 -2 26
2019-06-03 14:00:00 32.9 2 Sur 14 Sur 0 1000.8 -1.4 28
2019-06-03 13:00:00 31.2 0 Calma 13 Sudeste 0 1001.5 -1 31
2019-06-03 12:00:00 28.5 3 Nordeste 11 Nordeste 0 1001.9 -0.6 35
2019-06-03 11:00:00 26.6 0 Calma 10 Sudeste 0 1002.2 -0.3 39
2019-06-03 10:00:00 22.3 5 Este 8 Este 0 1002.5 0.3 45
2019-06-03 09:00:00 19.1 3 Sudeste 7 Sudeste 0 1002.5 0.3 52
2019-06-03 08:00:00 16.2 0 Calma 9 Sudoeste 0 1002.5 0.2 59
2019-06-03 07:00:00 14.8 4 Sur 5 Sur 0 1002.2 -0.2 59
2019-06-03 06:00:00 15.4 3 Sur 6 Sudeste 0 1002.2 -0.3 58
2019-06-03 05:00:00 15.9 5 Sur 7 Sudoeste 0 1002.3 -0.2 58
2019-06-03 04:00:00 17.5 2 Sudeste 9 Sudoeste 0 1002.4 -0.3 54
2019-06-03 03:00:00 18.5 3 Sudeste 12 Sudoeste 0 1002.5 0.3 51
2019-06-03 02:00:00 21.3 11 Sudoeste 18 Sudoeste 0 1002.5 1.3 45
2019-06-03 01:00:00 21.6 12 Sudoeste 18 Sudoeste 0 1002.7 2.4 43
2019-06-03 00:00:00 22.4 12 Sudoeste 22 Sur 0 1002.2 2.4 34
2019-06-02 23:00:00 23.6 15 Sudoeste 26 Sudoeste 0 1001.2 1.8 30
2019-06-02 22:00:00 25.8 17 Sudoeste 23 Sudoeste 0 1000.3 0.8 27
2019-06-02 21:00:00 30.3 13 Sur 21 Sur 0 999.8 0.3 24
2019-06-02 20:00:00 33.4 13 Sur 22 Sur 0 999.4 -0.4 22
2019-06-02 19:00:00 34.5 10 Sur 25 Sudoeste 0 999.5 -1 22
2019-06-02 18:00:00 34.9 11 Sudoeste 23 Sudoeste 0 999.5 -1.8 22
2019-06-02 17:00:00 34.9 4 Este 17 Sudeste 0 999.8 -2.3 23
2019-06-02 16:00:00 33.6 7 Sudeste 22 Este 0 1000.5 -2.4 24
2019-06-02 15:00:00 33.2 4 Sur 22 Este 0 1001.3 -1.9 25
2019-06-02 14:00:00 31.7 8 Este 18 Sur 0 1002.1 -1.6 28
2019-06-02 13:00:00 30.2 3 Este 18 Sudeste 0 1002.9 -0.9 31
2019-06-02 12:00:00 28.2 8 Sudeste 19 Sudeste 0 1003.2 -0.5 34
2019-06-02 11:00:00 25.3 6 Este 15 Sudeste 0 1003.7 0.3 38
2019-06-02 10:00:00 22.6 2 Este 9 Sudeste 0 1003.8 0.5 46
2019-06-02 09:00:00 19.6 2 Sudeste 6 Sudeste 0 1003.7 0.7 50
2019-06-02 08:00:00 16.6 0 Calma 4 Sur 0 1003.4 0.6 53
2019-06-02 07:00:00 14.2 3 Sur 13 Sur 0 1003.3 0.2 53
2019-06-02 06:00:00 16.1 6 Sudeste 34 Sur 0 1003 0 46
2019-06-02 05:00:00 19.8 19 Sudoeste 28 Sudoeste 0 1002.8 -0.8 41
2019-06-02 04:00:00 19 10 Sur 26 Sur 0 1003.1 -0.3 41
2019-06-02 03:00:00 20.4 19 Sur 28 Sudoeste 0 1003 0.1 39
2019-06-02 02:00:00 20.6 21 Sur 31 Sur 0 1003.6 1.2 38
2019-06-02 01:00:00 20.6 14 Sur 24 Sur 0 1003.4 2 37
2019-06-02 00:00:00 21.3 14 Sur 22 Sur 0 1002.9 1.9 35
2019-06-01 23:00:00 22.3 14 Sur 27 Sudoeste 0 1002.4 2.1 32
2019-06-01 22:00:00 23.5 19 Sur 29 Sur 0 1001.4 1 31
2019-06-01 21:00:00 26.2 21 Sur 37 Sur 0 1001 0.2 28
2019-06-01 20:00:00 28.9 23 Sur 35 Sur 0 1000.3 -0.9 27
2019-06-01 19:00:00 31 23 Sur 34 Sur 0 1000.4 -1.7 27
2019-06-01 18:00:00 32.3 19 Sur 30 Sudoeste 0 1000.8 -1.7 27
2019-06-01 17:00:00 33.1 16 Sur 29 Sur 0 1001.2 -2.1 27
2019-06-01 16:00:00 32.8 8 Sur 20 Sudeste 0 1002.1 -2.2 29
2019-06-01 15:00:00 31.9 7 Sur 27 Sur 0 1002.5 -1.8 30
2019-06-01 14:00:00 30.7 8 Sur 22 Sur 0 1003.3 -1.6 32
2019-06-01 13:00:00 29.6 8 Sudeste 20 Sudeste 0 1004.3 -0.4 34
2019-06-01 12:00:00 27.6 7 Este 17 Este 0 1004.3 -0.5 39
2019-06-01 11:00:00 25.1 5 Este 14 Este 0 1004.9 0.1 46
2019-06-01 10:00:00 22.2 3 Sudeste 9 Sudeste 0 1004.7 0.4 55
2019-06-01 09:00:00 18.9 5 Sudeste 9 Sudeste 0 1004.8 0.7 62
2019-06-01 08:00:00 15.5 0 Calma 5 Sudoeste 0 1004.8 1.1 68
2019-06-01 07:00:00 13.7 0 Calma 8 Sudoeste 0 1004.3 0.4 67
2019-06-01 06:00:00 14.5 4 Noroeste 4 Noroeste 0 1004.1 0.1 65
2019-06-01 05:00:00 15 0 Calma 2 Nordeste 0 1003.7 -0.5 62
2019-06-01 04:00:00 16.8 0 Calma 9 Sudoeste 0 1003.9 -0.7 59
2019-06-01 03:00:00 17.9 5 Sur 16 Sudoeste 0 1004 -0.1 55
2019-06-01 02:00:00 19.3 12 Sudoeste 18 Sudoeste 0 1004.2 0.7 51
2019-06-01 01:00:00 20.6 12 Sur 19 Sudoeste 0 1004.6 1.9 45
2019-06-01 00:00:00 20.9 13 Sudoeste 18 Sudoeste 0 1004.1 2 42
2019-05-31 23:00:00 22 10 Sur 17 Sur 0 1003.5 1.7 38
2019-05-31 22:00:00 23.5 9 Sudoeste 27 Sur 0 1002.7 0.8 35
2019-05-31 21:00:00 26.2 20 Sur 36 Sur 0 1002.1 -0.1 32
2019-05-31 20:00:00 28.7 23 Sur 35 Sudoeste 0 1001.8 -0.6 30
2019-05-31 19:00:00 31.2 19 Sur 56 Sur 0 1001.9 -1.2 28
2019-05-31 18:00:00 32.6 18 Sur 28 Sur 0 1002.2 -1.8 28
2019-05-31 17:00:00 33.4 10 Sur 22 Sur 0 1002.4 -2.2 28
2019-05-31 16:00:00 32.4 11 Sudeste 24 Sudeste 0 1003.1 -2 30
2019-05-31 15:00:00 31.5 11 Sudeste 22 Sudeste 0 1004 -1.4 32
2019-05-31 14:00:00 30.4 8 Este 23 Sudeste 0 1004.6 -1 33
2019-05-31 13:00:00 28.9 11 Sudeste 24 Este 0 1005.1 -0.9 34
2019-05-31 12:00:00 27.4 15 Este 26 Este 0 1005.4 -0.7 38
2019-05-31 11:00:00 25.4 6 Sudeste 17 Este 0 1005.6 -0.4 45
2019-05-31 10:00:00 22.6 2 Este 7 Sudeste 0 1006 0.4 52
2019-05-31 09:00:00 18.7 5 Sudeste 10 Sudeste 0 1006.1 0.6 60
2019-05-31 08:00:00 15.8 3 Sudeste 9 Sudeste 0 1006 0.7 61
2019-05-31 07:00:00 13.3 0 Calma 7 Este 0 1005.6 -0.1 63
2019-05-31 06:00:00 13.3 0 Calma 5 Sur 0 1005.5 -0.4 61
2019-05-31 05:00:00 13.7 0 Calma 5 Noroeste 0 1005.3 -1 59
2019-05-31 04:00:00 15 0 Calma 10 Noroeste 0 1005.7 -0.9 54
2019-05-31 03:00:00 16.3 6 Noroeste 11 Noroeste 0 1005.9 -0.7 50
2019-05-31 02:00:00 17.6 8 Noroeste 17 Sur 0 1006.3 0.5 46
2019-05-31 01:00:00 19.6 14 Sur 25 Sur 0 1006.6 2 43
2019-05-31 00:00:00 19.5 15 Sur 29 Sur 0 1006.6 2.6 43
2019-05-30 23:00:00 20.2 18 Sur 30 Sur 0 1005.8 2.1 44
2019-05-30 22:00:00 21.2 14 Sur 33 Sur 0 1004.6 1.2 42
2019-05-30 21:00:00 23.4 22 Sur 37 Sur 0 1004 0.3 39
2019-05-30 20:00:00 25.9 24 Sur 41 Sur 0 1003.7 -0.6 36
2019-05-30 19:00:00 28.4 24 Sur 35 Sur 0 1003.4 -1.1 35
2019-05-30 18:00:00 29.8 21 Sur 36 Sur 0 1003.7 -1.4 34
2019-05-30 17:00:00 30.3 21 Sur 36 Sur 0 1004.3 -1.5 34
2019-05-30 16:00:00 31.2 7 Sur 24 Sur 0 1004.5 -1.9 35
2019-05-30 15:00:00 30.4 13 Sudeste 22 Este 0 1005.1 -1.5 36
2019-05-30 14:00:00 28.7 16 Sudeste 23 Sudeste 0 1005.8 -1.1 38
2019-05-30 13:00:00 27.8 13 Sudeste 24 Sur 0 1006.4 -0.4 40
2019-05-30 12:00:00 26.5 14 Sudeste 25 Sudeste 0 1006.6 0 41
2019-05-30 11:00:00 25.5 13 Sudeste 29 Sudeste 0 1006.9 0.7 44
2019-05-30 10:00:00 22.8 3 Sur 10 Norte 0 1006.8 0.9 52
2019-05-30 09:00:00 20.1 3 Este 8 Norte 0 1006.6 1.3 63
2019-05-30 08:00:00 17.1 5 Noroeste 8 Noroeste 0 1006.2 1.2 73
2019-05-30 07:00:00 14.5 6 Noroeste 8 Noroeste 0 1005.9 0.8 76
2019-05-30 06:00:00 14.8 0 Calma 4 Noroeste 0 1005.3 0.3 74
2019-05-30 05:00:00 15 0 Calma 7 Sur 0 1005 0 73
2019-05-30 04:00:00 15.9 6 Sur 11 Sur 0 1005.1 0.3 70
2019-05-30 03:00:00 16.4 7 Sur 13 Sur 0 1005 0.6 63
2019-05-30 02:00:00 17 6 Sur 14 Sur 0 1005 1.9 56
2019-05-30 01:00:00 18.6 9 Sudeste 17 Sur 0 1004.8 3.1 51
2019-05-30 00:00:00 19.4 6 Sur 14 Sudoeste 0 1004.4 3.4 49
2019-05-29 23:00:00 22.3 10 Sudoeste 21 Sudoeste 0 1003.1 2.7 42
2019-05-29 22:00:00 25.9 6 Este 14 Nordeste 0 1001.7 1.1 28
2019-05-29 21:00:00 30.5 10 Este 25 Este 0 1001 0.3 25
2019-05-29 20:00:00 32.1 17 Este 29 Este 0 1000.4 -0.9 24
2019-05-29 19:00:00 33 14 Este 30 Este 0 1000.6 -0.9 24
2019-05-29 18:00:00 33.2 13 Este 25 Este 0 1000.7 -1.2 25
2019-05-29 17:00:00 33 8 Este 28 Este 0 1001.3 -1 25
2019-05-29 16:00:00 32.4 10 Este 32 Este 0 1001.5 -1.5 26
2019-05-29 15:00:00 31.7 9 Este 26 Este 0 1001.9 -1.2 29
2019-05-29 14:00:00 30.9 5 Sudeste 24 Sudeste 0 1002.3 -0.8 31
2019-05-29 13:00:00 29.8 6 Sudeste 23 Este 0 1003 -0.2 32
2019-05-29 12:00:00 28.5 13 Este 27 Este 0 1003.1 0.2 34
2019-05-29 11:00:00 27 16 Este 25 Este 0 1003.1 1 36
2019-05-29 10:00:00 25.1 12 Sudeste 22 Este 0 1003.2 2 40
2019-05-29 09:00:00 23.1 10 Sudeste 19 Este 0 1002.9 2.2 46
2019-05-29 08:00:00 20.8 3 Este 8 Este 0 1002.1 1.9 45
2019-05-29 07:00:00 18.7 0 Calma 14 Nordeste 0 1001.2 1.7 45
2019-05-29 06:00:00 20.3 8 Nordeste 16 Nordeste 0 1000.7 1.5 44
2019-05-29 05:00:00 19.1 2 Norte 8 Nordeste 0 1000.2 0.9 55
2019-05-29 04:00:00 17.5 0 Calma 6 Este 0 999.5 1.1 63
2019-05-29 03:00:00 19 3 Sur 10 Sudeste 0 999.2 0.9 59
2019-05-29 02:00:00 20.7 9 Este 15 Este 0 999.3 1.8 50
2019-05-29 01:00:00 22.7 0 Calma 20 Sudoeste 0 998.4 1.6 46
2019-05-29 00:00:00 24.3 16 Oeste 31 Oeste 0 998.3 2.3 41
2019-05-28 23:00:00 25.6 19 Oeste 32 Oeste 0 997.5 2.3 35
2019-05-28 22:00:00 27.4 21 Oeste 40 Oeste 0 996.8 1.7 32
2019-05-28 21:00:00 30.8 18 Oeste 31 Oeste 0 996 0.7 31
2019-05-28 20:00:00 35.5 8 Noroeste 17 Sudoeste 0 995.2 -0.5 26
2019-05-28 19:00:00 35.9 4 Sudoeste 18 Noroeste 0 995.1 -0.9 26
2019-05-28 18:00:00 35.5 6 Sudoeste 18 Oeste 0 995.3 -1 26
2019-05-28 17:00:00 35.5 6 Noroeste 22 Noroeste 0 995.7 -1 27
2019-05-28 16:00:00 34.8 7 Norte 21 Noroeste 0 996 -0.9 27
2019-05-28 15:00:00 33.7 6 Noroeste 20 Este 0 996.3 -0.8 30
2019-05-28 14:00:00 32.8 5 Noroeste 17 Noroeste 0 996.7 -0.3 33
2019-05-28 13:00:00 31.2 3 Noroeste 21 Noroeste 0 996.9 -0.2 37
2019-05-28 12:00:00 28.6 4 Norte 14 Nordeste 0 997.1 0 42
2019-05-28 11:00:00 26.6 3 Nordeste 11 Nordeste 0 997 0.4 46
2019-05-28 10:00:00 24 4 Norte 10 Nordeste 0 997.1 1.1 51
2019-05-28 09:00:00 20.8 2 Sudeste 6 Sudeste 0 997.1 1.2 56
2019-05-28 08:00:00 16.8 2 Sur 8 Sudeste 0 996.6 1 65
2019-05-28 07:00:00 15.6 4 Sur 7 Sudeste 0 996 0.1 63
2019-05-28 06:00:00 16.7 0 Calma 5 Sur 0 995.9 -0.2 59
2019-05-28 05:00:00 17.8 0 Calma 11 Sur 0 995.6 -0.4 54
2019-05-28 04:00:00 20.9 0 Calma 19 Oeste 0 995.9 -0.5 49
2019-05-28 03:00:00 22.3 12 Oeste 23 Sudoeste 0 996.1 -0.5 46
2019-05-28 02:00:00 22.5 12 Oeste 22 Oeste 0 996 0.4 45
2019-05-28 01:00:00 22.2 0 Calma 23 Sudoeste 0 996.4 1.5 44
2019-05-28 00:00:00 23.3 4 Sudeste 35 Sudoeste 0 996.6 1.9 42
2019-05-27 23:00:00 25.3 19 Oeste 39 Oeste 0 995.6 1.8 38
2019-05-27 22:00:00 27.7 17 Oeste 34 Oeste 0 994.9 0.9 32
2019-05-27 21:00:00 30.6 17 Oeste 40 Oeste 0 994.7 0.3 30
2019-05-27 20:00:00 33.5 13 Oeste 26 Oeste 0 993.8 -1.1 25
2019-05-27 19:00:00 34.4 12 Sudoeste 25 Oeste 0 994 -1.6 25
2019-05-27 18:00:00 34.8 5 Sudoeste 30 Sudoeste 0 994.4 -2.3 25
2019-05-27 17:00:00 34.1 2 Noroeste 22 Sudoeste 0 994.9 -2.7 26
2019-05-27 16:00:00 34.2 7 Sur 20 Sudoeste 0 995.6 -2.8 27
2019-05-27 15:00:00 33 6 Sudeste 15 Sudeste 0 996.7 -2.2 28
2019-05-27 14:00:00 31.5 3 Sudeste 14 Este 0 997.6 -1.4 31
2019-05-27 13:00:00 29.4 5 Sudeste 14 Nordeste 0 998.4 -1.3 35
2019-05-27 12:00:00 27 3 Este 13 Sudeste 0 998.9 -0.3 39
2019-05-27 11:00:00 25.2 2 Sudeste 9 Este 0 999 -0.4 43
2019-05-27 10:00:00 21.4 0 Calma 8 Este 0 999.7 0.9 53
2019-05-27 09:00:00 18 4 Sudeste 9 Sudeste 0 999.2 0.5 61
2019-05-27 08:00:00 14.6 3 Sur 5 Sur 0 999.4 0.4 70
2019-05-27 07:00:00 12.5 0 Calma 5 Sur 0 998.8 -0.5 70
2019-05-27 06:00:00 13.7 3 Sur 6 Sur 0 998.7 -0.7 65
2019-05-27 05:00:00 14.7 0 Calma 5 Sur 0 999 -0.5 61
2019-05-27 04:00:00 15.9 2 Sur 5 Sudoeste 0 999.3 -0.1 56
2019-05-27 03:00:00 17.8 0 Calma 9 Este 0 999.4 0 49
2019-05-27 02:00:00 20.1 8 Sudoeste 35 Oeste 0 999.5 0.5 46
2019-05-27 01:00:00 20.7 22 Sudoeste 35 Oeste 0 999.4 1.3 46
2019-05-27 00:00:00 21.4 22 Sudoeste 32 Sudoeste 0 999.4 1.7 48
2019-05-26 23:00:00 24 19 Sudoeste 29 Sudoeste 0 999 1.6 41
2019-05-26 22:00:00 25.3 7 Noroeste 8 Noroeste 0 998.1 0.6 29
2019-05-26 21:00:00 30.8 3 Nordeste 22 Norte 0 997.7 -0.2 25
2019-05-26 20:00:00 31.9 8 Nordeste 23 Norte 0 997.4 -1.1 24
2019-05-26 19:00:00 32.5 12 Noroeste 23 Norte 0 997.5 -1.7 25
2019-05-26 18:00:00 31.7 10 Nordeste 23 Norte 0 997.9 -2.1 27
2019-05-26 17:00:00 31.4 4 Norte 26 Noroeste 0 998.5 -2.3 28
2019-05-26 16:00:00 30.6 3 Norte 24 Norte 0 999.2 -2.2 30
2019-05-26 15:00:00 29.8 7 Este 24 Este 0 1000 -1.9 32
2019-05-26 14:00:00 28.9 4 Este 15 Este 0 1000.8 -1.5 34
2019-05-26 13:00:00 27.2 3 Sudeste 14 Sudeste 0 1001.4 -1.3 38
2019-05-26 12:00:00 25.7 4 Sudeste 14 Nordeste 0 1001.9 -0.9 43
2019-05-26 11:00:00 23.8 3 Sur 12 Sudeste 0 1002.3 -0.2 47
2019-05-26 10:00:00 21.1 5 Sudeste 10 Sudeste 0 1002.7 0.9 52
2019-05-26 09:00:00 18 3 Este 5 Este 0 1002.8 0.9 61
2019-05-26 08:00:00 14.3 0 Calma 8 Sudeste 0 1002.5 0.5 71
2019-05-26 07:00:00 12.2 4 Sudeste 10 Sudoeste 0 1001.8 -0.1 71
2019-05-26 06:00:00 13.5 7 Sur 9 Sudoeste 0 1001.9 0.1 70
2019-05-26 05:00:00 14.3 4 Sur 6 Sudeste 0 1002 0 67
2019-05-26 04:00:00 15.3 0 Calma 6 Sur 0 1001.9 0.1 69
2019-05-26 03:00:00 16.9 0 Calma 12 Sudoeste 0 1001.8 0.2 70
2019-05-26 02:00:00 18.7 3 Sur 24 Sudoeste 0 1002 1.4 63
2019-05-26 01:00:00 20.1 15 Sudoeste 27 Sudoeste 0 1001.8 2 61
2019-05-26 00:00:00 20.9 18 Sudoeste 29 Sudoeste 0 1001.6 2.3 51